KLIC/LIC METAR and TAF weather

Enter ICAO airport designator
Station Type Date Time Source
KLIC METAR 2020/10/22 02:55 UTC NOAA

KLIC 220255Z AUTO 16006KT 10SM CLR 09/01 A2983 RMK AO2 SLP075 T00890011 58002


Station Type Date Time Source
KLIC Decoded METAR 2020/10/22 02:55 UTC NOAA

LIMON MUNICIPAL AIRPORT, CO, United States (KLIC) 39-16N 103-40W 1630M
Oct 21, 2020 - 10:55 PM EDT / 2020.10.22 0255 UTC
Wind: from the SSE (160 degrees) at 7 MPH (6 KT):0
Visibility: 10 mile(s):0
Sky conditions: clear
Temperature: 48.0 F (8.9 C)
Dew Point: 34.0 F (1.1 C)
Relative Humidity: 58%
Pressure (altimeter): 29.83 in. Hg (1010 hPa)
Pressure tendency: 0.01 inches (0.2 hPa) lower than three hours ago
ob: KLIC 220255Z AUTO 16006KT 10SM CLR 09/01 A2983 RMK AO2 SLP075 T00890011 58002
cycle: 3

Station Type Date Time Source
KLIC TAF UTC NOAA

Error!

Example: see airport list